sensor_id;sensor_type;location;lat;lon;timestamp;P1;durP1;ratioP1;P2;durP2;ratioP2
77938;SDS011;67136;47.546;21.630;2023-07-20T00:01:02;3.97;;;2.60;;
77938;SDS011;67136;47.546;21.630;2023-07-20T00:04:05;3.58;;;2.40;;
77938;SDS011;67136;47.546;21.630;2023-07-20T00:07:08;12.05;;;5.12;;
77938;SDS011;67136;47.546;21.630;2023-07-20T00:10:10;13.60;;;4.80;;
77938;SDS011;67136;47.546;21.630;2023-07-20T00:13:13;14.80;;;4.30;;
77938;SDS011;67136;47.546;21.630;2023-07-20T00:16:18;7.22;;;3.75;;
77938;SDS011;67136;47.546;21.630;2023-07-20T00:19:24;6.75;;;3.42;;
77938;SDS011;67136;47.546;21.630;2023-07-20T00:22:27;6.97;;;3.30;;
77938;SDS011;67136;47.546;21.630;2023-07-20T00:25:34;5.50;;;3.63;;
77938;SDS011;67136;47.546;21.630;2023-07-20T00:28:36;7.03;;;3.45;;
77938;SDS011;67136;47.546;21.630;2023-07-20T00:31:40;8.15;;;3.62;;
77938;SDS011;67136;47.546;21.630;2023-07-20T00:34:43;5.70;;;2.75;;
77938;SDS011;67136;47.546;21.630;2023-07-20T00:37:45;5.20;;;3.00;;
77938;SDS011;67136;47.546;21.630;2023-07-20T00:40:49;6.60;;;2.83;;
77938;SDS011;67136;47.546;21.630;2023-07-20T00:43:54;4.05;;;2.55;;
77938;SDS011;67136;47.546;21.630;2023-07-20T00:46:57;7.72;;;2.97;;
77938;SDS011;67136;47.546;21.630;2023-07-20T00:50:00;5.57;;;3.12;;
77938;SDS011;67136;47.546;21.630;2023-07-20T00:53:06;3.80;;;2.50;;
77938;SDS011;67136;47.546;21.630;2023-07-20T00:56:09;3.67;;;2.60;;
77938;SDS011;67136;47.546;21.630;2023-07-20T00:59:12;5.57;;;2.58;;
77938;SDS011;67136;47.546;21.630;2023-07-20T01:02:15;4.07;;;2.62;;
77938;SDS011;67136;47.546;21.630;2023-07-20T01:05:18;4.30;;;2.83;;
77938;SDS011;67136;47.546;21.630;2023-07-20T01:11:36;6.90;;;2.70;;
77938;SDS011;67136;47.546;21.630;2023-07-20T01:14:45;6.87;;;2.97;;
77938;SDS011;67136;47.546;21.630;2023-07-20T01:17:49;6.65;;;2.90;;
77938;SDS011;67136;47.546;21.630;2023-07-20T01:20:59;4.32;;;2.83;;
77938;SDS011;67136;47.546;21.630;2023-07-20T01:30:50;6.93;;;3.22;;
77938;SDS011;67136;47.546;21.630;2023-07-20T01:33:55;7.40;;;3.10;;
77938;SDS011;67136;47.546;21.630;2023-07-20T01:37:00;11.98;;;3.20;;
77938;SDS011;67136;47.546;21.630;2023-07-20T01:40:05;6.05;;;3.17;;
77938;SDS011;67136;47.546;21.630;2023-07-20T01:43:10;5.60;;;3.27;;
77938;SDS011;67136;47.546;21.630;2023-07-20T01:46:14;6.40;;;4.12;;
77938;SDS011;67136;47.546;21.630;2023-07-20T01:49:20;5.18;;;3.25;;
77938;SDS011;67136;47.546;21.630;2023-07-20T01:52:23;5.80;;;3.17;;
77938;SDS011;67136;47.546;21.630;2023-07-20T01:55:26;3.45;;;2.55;;
77938;SDS011;67136;47.546;21.630;2023-07-20T01:58:30;4.57;;;2.70;;
77938;SDS011;67136;47.546;21.630;2023-07-20T02:01:34;3.97;;;2.72;;
77938;SDS011;67136;47.546;21.630;2023-07-20T02:04:37;10.48;;;3.70;;
77938;SDS011;67136;47.546;21.630;2023-07-20T02:07:43;5.62;;;2.85;;
77938;SDS011;67136;47.546;21.630;2023-07-20T02:10:47;6.75;;;2.87;;
77938;SDS011;67136;47.546;21.630;2023-07-20T02:13:50;7.07;;;3.10;;
77938;SDS011;67136;47.546;21.630;2023-07-20T02:16:53;5.43;;;3.30;;
77938;SDS011;67136;47.546;21.630;2023-07-20T02:20:01;5.65;;;3.12;;
77938;SDS011;67136;47.546;21.630;2023-07-20T02:23:05;5.95;;;3.40;;
77938;SDS011;67136;47.546;21.630;2023-07-20T02:26:08;4.90;;;3.20;;
77938;SDS011;67136;47.546;21.630;2023-07-20T02:29:11;4.90;;;3.03;;
77938;SDS011;67136;47.546;21.630;2023-07-20T02:32:14;4.87;;;3.17;;
77938;SDS011;67136;47.546;21.630;2023-07-20T02:35:17;5.35;;;3.33;;
77938;SDS011;67136;47.546;21.630;2023-07-20T02:38:19;4.97;;;3.20;;
77938;SDS011;67136;47.546;21.630;2023-07-20T02:41:25;4.30;;;3.30;;
77938;SDS011;67136;47.546;21.630;2023-07-20T02:44:28;5.20;;;3.40;;
77938;SDS011;67136;47.546;21.630;2023-07-20T02:47:30;4.60;;;3.12;;
77938;SDS011;67136;47.546;21.630;2023-07-20T02:50:33;4.18;;;3.20;;
77938;SDS011;67136;47.546;21.630;2023-07-20T02:53:38;5.15;;;3.70;;
77938;SDS011;67136;47.546;21.630;2023-07-20T02:56:41;6.22;;;3.37;;
77938;SDS011;67136;47.546;21.630;2023-07-20T02:59:44;4.73;;;3.30;;
77938;SDS011;67136;47.546;21.630;2023-07-20T03:02:48;4.55;;;3.00;;
77938;SDS011;67136;47.546;21.630;2023-07-20T03:05:51;4.47;;;2.78;;
77938;SDS011;67136;47.546;21.630;2023-07-20T03:08:56;7.15;;;3.50;;
77938;SDS011;67136;47.546;21.630;2023-07-20T03:12:02;5.07;;;3.50;;
77938;SDS011;67136;47.546;21.630;2023-07-20T03:15:07;4.37;;;2.90;;
77938;SDS011;67136;47.546;21.630;2023-07-20T03:18:11;9.27;;;3.17;;
77938;SDS011;67136;47.546;21.630;2023-07-20T03:21:26;4.95;;;3.40;;
77938;SDS011;67136;47.546;21.630;2023-07-20T03:24:28;5.30;;;3.22;;
77938;SDS011;67136;47.546;21.630;2023-07-20T03:27:31;5.45;;;3.40;;
77938;SDS011;67136;47.546;21.630;2023-07-20T03:30:34;5.07;;;3.47;;
77938;SDS011;67136;47.546;21.630;2023-07-20T03:33:38;5.72;;;3.17;;
77938;SDS011;67136;47.546;21.630;2023-07-20T03:36:43;6.50;;;3.47;;
77938;SDS011;67136;47.546;21.630;2023-07-20T03:39:46;7.95;;;4.25;;
77938;SDS011;67136;47.546;21.630;2023-07-20T03:42:50;5.60;;;3.10;;
77938;SDS011;67136;47.546;21.630;2023-07-20T03:45:53;6.07;;;3.40;;
77938;SDS011;67136;47.546;21.630;2023-07-20T03:48:59;6.65;;;3.42;;
77938;SDS011;67136;47.546;21.630;2023-07-20T03:52:02;8.35;;;3.22;;
77938;SDS011;67136;47.546;21.630;2023-07-20T03:55:05;5.22;;;3.25;;
77938;SDS011;67136;47.546;21.630;2023-07-20T03:58:09;5.75;;;3.00;;
77938;SDS011;67136;47.546;21.630;2023-07-20T04:01:11;8.80;;;3.13;;
77938;SDS011;67136;47.546;21.630;2023-07-20T04:04:16;4.55;;;2.75;;
77938;SDS011;67136;47.546;21.630;2023-07-20T04:07:18;6.25;;;3.00;;
77938;SDS011;67136;47.546;21.630;2023-07-20T04:10:21;4.37;;;3.00;;
77938;SDS011;67136;47.546;21.630;2023-07-20T04:13:26;5.12;;;2.90;;
77938;SDS011;67136;47.546;21.630;2023-07-20T04:16:30;6.27;;;3.77;;
77938;SDS011;67136;47.546;21.630;2023-07-20T04:19:33;7.55;;;3.60;;
77938;SDS011;67136;47.546;21.630;2023-07-20T04:22:35;6.87;;;3.70;;
77938;SDS011;67136;47.546;21.630;2023-07-20T04:25:39;6.20;;;3.33;;
77938;SDS011;67136;47.546;21.630;2023-07-20T04:28:43;6.97;;;3.25;;
77938;SDS011;67136;47.546;21.630;2023-07-20T04:31:46;4.47;;;3.17;;
77938;SDS011;67136;47.546;21.630;2023-07-20T04:34:49;5.25;;;3.12;;
77938;SDS011;67136;47.546;21.630;2023-07-20T04:37:52;8.35;;;3.33;;
77938;SDS011;67136;47.546;21.630;2023-07-20T04:40:55;5.10;;;3.65;;
77938;SDS011;67136;47.546;21.630;2023-07-20T04:43:58;5.00;;;2.87;;
77938;SDS011;67136;47.546;21.630;2023-07-20T04:47:04;5.33;;;3.37;;
77938;SDS011;67136;47.546;21.630;2023-07-20T04:50:07;9.90;;;4.12;;
77938;SDS011;67136;47.546;21.630;2023-07-20T04:53:11;4.60;;;2.85;;
77938;SDS011;67136;47.546;21.630;2023-07-20T04:56:14;6.50;;;3.37;;
77938;SDS011;67136;47.546;21.630;2023-07-20T04:59:18;5.47;;;3.00;;
77938;SDS011;67136;47.546;21.630;2023-07-20T05:02:20;5.03;;;3.30;;
77938;SDS011;67136;47.546;21.630;2023-07-20T05:05:23;5.03;;;2.95;;
77938;SDS011;67136;47.546;21.630;2023-07-20T05:08:29;6.00;;;2.72;;
77938;SDS011;67136;47.546;21.630;2023-07-20T05:11:33;5.30;;;2.95;;
77938;SDS011;67136;47.546;21.630;2023-07-20T05:14:36;5.18;;;2.97;;
77938;SDS011;67136;47.546;21.630;2023-07-20T05:17:39;5.47;;;2.93;;
77938;SDS011;67136;47.546;21.630;2023-07-20T05:20:42;12.23;;;3.08;;
77938;SDS011;67136;47.546;21.630;2023-07-20T05:23:45;6.10;;;2.92;;
77938;SDS011;67136;47.546;21.630;2023-07-20T05:26:48;6.30;;;2.72;;
77938;SDS011;67136;47.546;21.630;2023-07-20T05:29:52;4.50;;;2.87;;
77938;SDS011;67136;47.546;21.630;2023-07-20T05:32:54;4.67;;;2.93;;
77938;SDS011;67136;47.546;21.630;2023-07-20T05:35:57;8.30;;;2.90;;
77938;SDS011;67136;47.546;21.630;2023-07-20T05:39:00;5.32;;;2.80;;
77938;SDS011;67136;47.546;21.630;2023-07-20T05:42:05;6.12;;;2.62;;
77938;SDS011;67136;47.546;21.630;2023-07-20T05:45:09;5.95;;;3.10;;
77938;SDS011;67136;47.546;21.630;2023-07-20T05:48:12;5.63;;;2.70;;
77938;SDS011;67136;47.546;21.630;2023-07-20T05:51:15;5.55;;;2.70;;
77938;SDS011;67136;47.546;21.630;2023-07-20T05:54:18;5.32;;;2.80;;
77938;SDS011;67136;47.546;21.630;2023-07-20T05:57:23;4.97;;;2.70;;
77938;SDS011;67136;47.546;21.630;2023-07-20T06:00:26;5.30;;;2.97;;
77938;SDS011;67136;47.546;21.630;2023-07-20T06:03:33;4.40;;;3.07;;
77938;SDS011;67136;47.546;21.630;2023-07-20T06:06:37;7.82;;;3.15;;
77938;SDS011;67136;47.546;21.630;2023-07-20T06:09:40;6.35;;;2.97;;
77938;SDS011;67136;47.546;21.630;2023-07-20T06:12:43;8.10;;;3.05;;
77938;SDS011;67136;47.546;21.630;2023-07-20T06:15:46;7.45;;;3.40;;
77938;SDS011;67136;47.546;21.630;2023-07-20T06:18:49;9.43;;;3.30;;
77938;SDS011;67136;47.546;21.630;2023-07-20T06:21:52;9.00;;;3.30;;
77938;SDS011;67136;47.546;21.630;2023-07-20T06:24:55;5.28;;;2.80;;
77938;SDS011;67136;47.546;21.630;2023-07-20T06:27:57;6.78;;;3.28;;
77938;SDS011;67136;47.546;21.630;2023-07-20T06:31:00;7.80;;;3.10;;
77938;SDS011;67136;47.546;21.630;2023-07-20T06:34:10;9.03;;;4.10;;
77938;SDS011;67136;47.546;21.630;2023-07-20T06:37:13;10.80;;;3.42;;
77938;SDS011;67136;47.546;21.630;2023-07-20T06:40:16;6.43;;;2.78;;
77938;SDS011;67136;47.546;21.630;2023-07-20T06:43:21;6.95;;;3.28;;
77938;SDS011;67136;47.546;21.630;2023-07-20T06:46:27;7.10;;;3.25;;
77938;SDS011;67136;47.546;21.630;2023-07-20T06:49:29;7.13;;;3.27;;
77938;SDS011;67136;47.546;21.630;2023-07-20T06:52:33;8.43;;;3.25;;
77938;SDS011;67136;47.546;21.630;2023-07-20T06:55:36;6.93;;;3.80;;
77938;SDS011;67136;47.546;21.630;2023-07-20T06:58:43;12.73;;;4.40;;
77938;SDS011;67136;47.546;21.630;2023-07-20T07:01:46;8.80;;;3.85;;
77938;SDS011;67136;47.546;21.630;2023-07-20T07:04:49;10.90;;;3.90;;
77938;SDS011;67136;47.546;21.630;2023-07-20T07:08:01;10.50;;;4.78;;
77938;SDS011;67136;47.546;21.630;2023-07-20T07:11:05;13.98;;;4.40;;
77938;SDS011;67136;47.546;21.630;2023-07-20T07:14:08;16.15;;;4.32;;
77938;SDS011;67136;47.546;21.630;2023-07-20T07:17:12;10.02;;;3.95;;
77938;SDS011;67136;47.546;21.630;2023-07-20T07:20:20;6.57;;;4.27;;
77938;SDS011;67136;47.546;21.630;2023-07-20T07:23:23;5.75;;;3.72;;
77938;SDS011;67136;47.546;21.630;2023-07-20T07:26:25;6.75;;;3.95;;
77938;SDS011;67136;47.546;21.630;2023-07-20T07:29:29;10.75;;;4.07;;
77938;SDS011;67136;47.546;21.630;2023-07-20T07:32:31;8.23;;;4.07;;
77938;SDS011;67136;47.546;21.630;2023-07-20T07:35:34;7.70;;;3.90;;
77938;SDS011;67136;47.546;21.630;2023-07-20T07:38:37;6.80;;;4.18;;
77938;SDS011;67136;47.546;21.630;2023-07-20T07:42:00;5.90;;;4.47;;
77938;SDS011;67136;47.546;21.630;2023-07-20T07:45:03;8.35;;;4.00;;
77938;SDS011;67136;47.546;21.630;2023-07-20T07:48:06;10.27;;;4.05;;
77938;SDS011;67136;47.546;21.630;2023-07-20T07:51:10;9.33;;;4.57;;
77938;SDS011;67136;47.546;21.630;2023-07-20T07:54:13;7.53;;;4.45;;
77938;SDS011;67136;47.546;21.630;2023-07-20T07:57:15;7.60;;;4.20;;
77938;SDS011;67136;47.546;21.630;2023-07-20T08:00:18;10.63;;;4.78;;
77938;SDS011;67136;47.546;21.630;2023-07-20T08:03:21;7.90;;;4.75;;
77938;SDS011;67136;47.546;21.630;2023-07-20T08:06:27;7.73;;;4.37;;
77938;SDS011;67136;47.546;21.630;2023-07-20T08:09:30;8.98;;;4.70;;
77938;SDS011;67136;47.546;21.630;2023-07-20T08:12:33;10.35;;;4.57;;
77938;SDS011;67136;47.546;21.630;2023-07-20T08:15:35;7.90;;;4.22;;
77938;SDS011;67136;47.546;21.630;2023-07-20T08:18:43;9.18;;;3.92;;
77938;SDS011;67136;47.546;21.630;2023-07-20T08:21:46;6.80;;;3.87;;
77938;SDS011;67136;47.546;21.630;2023-07-20T08:24:49;9.45;;;4.07;;
77938;SDS011;67136;47.546;21.630;2023-07-20T08:27:51;11.77;;;4.20;;
77938;SDS011;67136;47.546;21.630;2023-07-20T08:30:54;20.50;;;4.15;;
77938;SDS011;67136;47.546;21.630;2023-07-20T08:33:57;9.50;;;4.03;;
77938;SDS011;67136;47.546;21.630;2023-07-20T08:37:00;9.37;;;4.60;;
77938;SDS011;67136;47.546;21.630;2023-07-20T08:40:03;14.55;;;4.28;;
77938;SDS011;67136;47.546;21.630;2023-07-20T08:43:07;10.45;;;4.32;;
77938;SDS011;67136;47.546;21.630;2023-07-20T08:46:10;10.80;;;4.25;;
77938;SDS011;67136;47.546;21.630;2023-07-20T08:49:16;5.87;;;3.85;;
77938;SDS011;67136;47.546;21.630;2023-07-20T08:52:20;8.93;;;4.07;;
77938;SDS011;67136;47.546;21.630;2023-07-20T08:55:24;7.30;;;4.53;;
77938;SDS011;67136;47.546;21.630;2023-07-20T08:58:28;9.02;;;4.40;;
77938;SDS011;67136;47.546;21.630;2023-07-20T09:01:32;9.02;;;4.85;;
77938;SDS011;67136;47.546;21.630;2023-07-20T09:04:35;7.25;;;4.05;;
77938;SDS011;67136;47.546;21.630;2023-07-20T09:07:40;10.57;;;4.37;;
77938;SDS011;67136;47.546;21.630;2023-07-20T09:10:43;9.18;;;4.10;;
77938;SDS011;67136;47.546;21.630;2023-07-20T09:14:01;13.00;;;5.10;;
77938;SDS011;67136;47.546;21.630;2023-07-20T09:17:08;6.87;;;4.37;;
77938;SDS011;67136;47.546;21.630;2023-07-20T09:20:19;8.88;;;4.32;;
77938;SDS011;67136;47.546;21.630;2023-07-20T09:23:31;7.27;;;3.70;;
77938;SDS011;67136;47.546;21.630;2023-07-20T09:26:40;5.57;;;3.28;;
77938;SDS011;67136;47.546;21.630;2023-07-20T09:29:53;5.12;;;3.30;;
77938;SDS011;67136;47.546;21.630;2023-07-20T09:32:56;5.12;;;2.80;;
77938;SDS011;67136;47.546;21.630;2023-07-20T09:36:02;6.25;;;3.20;;
77938;SDS011;67136;47.546;21.630;2023-07-20T09:39:26;6.13;;;2.97;;
77938;SDS011;67136;47.546;21.630;2023-07-20T09:42:31;7.62;;;2.78;;
77938;SDS011;67136;47.546;21.630;2023-07-20T09:45:40;8.70;;;3.15;;
77938;SDS011;67136;47.546;21.630;2023-07-20T09:48:53;7.30;;;2.95;;
77938;SDS011;67136;47.546;21.630;2023-07-20T09:51:59;4.43;;;3.03;;
77938;SDS011;67136;47.546;21.630;2023-07-20T09:55:05;7.17;;;2.80;;
77938;SDS011;67136;47.546;21.630;2023-07-20T09:58:11;7.00;;;2.67;;
77938;SDS011;67136;47.546;21.630;2023-07-20T10:01:15;7.95;;;3.35;;
77938;SDS011;67136;47.546;21.630;2023-07-20T10:04:27;5.35;;;2.97;;
77938;SDS011;67136;47.546;21.630;2023-07-20T10:07:31;5.78;;;2.90;;
77938;SDS011;67136;47.546;21.630;2023-07-20T10:10:41;5.90;;;2.97;;
77938;SDS011;67136;47.546;21.630;2023-07-20T10:13:51;5.82;;;2.97;;
77938;SDS011;67136;47.546;21.630;2023-07-20T10:16:58;11.38;;;3.40;;
77938;SDS011;67136;47.546;21.630;2023-07-20T10:20:03;7.07;;;2.92;;
77938;SDS011;67136;47.546;21.630;2023-07-20T10:23:07;7.10;;;3.00;;
77938;SDS011;67136;47.546;21.630;2023-07-20T10:26:11;4.37;;;2.90;;
77938;SDS011;67136;47.546;21.630;2023-07-20T10:29:15;7.18;;;3.10;;
77938;SDS011;67136;47.546;21.630;2023-07-20T10:32:19;6.85;;;3.15;;
77938;SDS011;67136;47.546;21.630;2023-07-20T10:35:23;5.60;;;3.10;;
77938;SDS011;67136;47.546;21.630;2023-07-20T10:38:39;7.75;;;3.33;;
77938;SDS011;67136;47.546;21.630;2023-07-20T10:42:01;5.20;;;2.50;;
77938;SDS011;67136;47.546;21.630;2023-07-20T10:45:10;7.37;;;2.78;;
77938;SDS011;67136;47.546;21.630;2023-07-20T10:48:21;5.53;;;3.00;;
77938;SDS011;67136;47.546;21.630;2023-07-20T10:51:25;8.15;;;3.03;;
77938;SDS011;67136;47.546;21.630;2023-07-20T10:57:31;8.57;;;2.90;;
77938;SDS011;67136;47.546;21.630;2023-07-20T11:00:35;4.85;;;2.62;;
77938;SDS011;67136;47.546;21.630;2023-07-20T11:03:38;7.05;;;2.87;;
77938;SDS011;67136;47.546;21.630;2023-07-20T11:06:43;5.37;;;2.78;;
77938;SDS011;67136;47.546;21.630;2023-07-20T11:09:46;9.38;;;2.92;;
77938;SDS011;67136;47.546;21.630;2023-07-20T11:16:51;7.40;;;2.60;;
77938;SDS011;67136;47.546;21.630;2023-07-20T11:19:59;4.15;;;2.33;;
77938;SDS011;67136;47.546;21.630;2023-07-20T11:23:08;4.80;;;2.70;;
77938;SDS011;67136;47.546;21.630;2023-07-20T11:26:12;10.32;;;2.83;;
77938;SDS011;67136;47.546;21.630;2023-07-20T11:29:19;3.57;;;2.30;;
77938;SDS011;67136;47.546;21.630;2023-07-20T11:32:34;5.40;;;2.37;;
77938;SDS011;67136;47.546;21.630;2023-07-20T11:35:44;5.50;;;2.45;;
77938;SDS011;67136;47.546;21.630;2023-07-20T11:38:49;6.90;;;2.70;;
77938;SDS011;67136;47.546;21.630;2023-07-20T11:41:52;3.20;;;2.50;;
77938;SDS011;67136;47.546;21.630;2023-07-20T11:44:58;6.60;;;2.60;;
77938;SDS011;67136;47.546;21.630;2023-07-20T11:48:02;6.35;;;2.75;;
77938;SDS011;67136;47.546;21.630;2023-07-20T11:51:05;6.07;;;2.65;;
77938;SDS011;67136;47.546;21.630;2023-07-20T11:54:08;5.87;;;2.90;;
77938;SDS011;67136;47.546;21.630;2023-07-20T11:57:16;5.80;;;2.80;;
77938;SDS011;67136;47.546;21.630;2023-07-20T12:00:24;6.53;;;2.23;;
77938;SDS011;67136;47.546;21.630;2023-07-20T12:03:29;3.53;;;2.28;;
77938;SDS011;67136;47.546;21.630;2023-07-20T12:06:32;4.40;;;2.30;;
77938;SDS011;67136;47.546;21.630;2023-07-20T12:09:35;3.35;;;2.35;;
77938;SDS011;67136;47.546;21.630;2023-07-20T12:12:52;4.75;;;2.33;;
77938;SDS011;67136;47.546;21.630;2023-07-20T12:15:55;4.43;;;2.00;;
77938;SDS011;67136;47.546;21.630;2023-07-20T12:19:17;6.05;;;2.20;;
77938;SDS011;67136;47.546;21.630;2023-07-20T12:22:20;5.80;;;1.83;;
77938;SDS011;67136;47.546;21.630;2023-07-20T12:25:22;3.55;;;2.00;;
77938;SDS011;67136;47.546;21.630;2023-07-20T12:28:25;4.85;;;2.05;;
77938;SDS011;67136;47.546;21.630;2023-07-20T12:31:28;12.97;;;2.43;;
77938;SDS011;67136;47.546;21.630;2023-07-20T12:34:32;4.05;;;2.50;;
77938;SDS011;67136;47.546;21.630;2023-07-20T12:37:35;3.58;;;2.50;;
77938;SDS011;67136;47.546;21.630;2023-07-20T12:40:38;6.80;;;2.47;;
77938;SDS011;67136;47.546;21.630;2023-07-20T12:43:41;5.28;;;2.28;;
77938;SDS011;67136;47.546;21.630;2023-07-20T12:46:47;4.03;;;2.10;;
77938;SDS011;67136;47.546;21.630;2023-07-20T12:49:50;8.48;;;2.25;;
77938;SDS011;67136;47.546;21.630;2023-07-20T12:52:54;4.30;;;2.08;;
77938;SDS011;67136;47.546;21.630;2023-07-20T12:55:57;5.35;;;1.80;;
77938;SDS011;67136;47.546;21.630;2023-07-20T12:59:01;6.05;;;2.20;;
77938;SDS011;67136;47.546;21.630;2023-07-20T13:02:05;6.50;;;2.00;;
77938;SDS011;67136;47.546;21.630;2023-07-20T13:05:09;6.90;;;2.10;;
77938;SDS011;67136;47.546;21.630;2023-07-20T13:08:12;9.60;;;1.92;;
77938;SDS011;67136;47.546;21.630;2023-07-20T13:11:18;7.53;;;1.70;;
77938;SDS011;67136;47.546;21.630;2023-07-20T13:14:20;6.53;;;1.80;;
77938;SDS011;67136;47.546;21.630;2023-07-20T13:17:23;9.70;;;2.27;;
77938;SDS011;67136;47.546;21.630;2023-07-20T13:20:26;9.13;;;2.05;;
77938;SDS011;67136;47.546;21.630;2023-07-20T13:23:30;4.68;;;1.92;;
77938;SDS011;67136;47.546;21.630;2023-07-20T13:26:33;5.87;;;1.58;;
77938;SDS011;67136;47.546;21.630;2023-07-20T13:29:38;4.45;;;1.60;;
77938;SDS011;67136;47.546;21.630;2023-07-20T13:32:41;4.40;;;1.80;;
77938;SDS011;67136;47.546;21.630;2023-07-20T13:35:46;9.13;;;1.60;;
77938;SDS011;67136;47.546;21.630;2023-07-20T13:38:51;13.90;;;1.80;;
77938;SDS011;67136;47.546;21.630;2023-07-20T13:41:58;10.38;;;1.70;;
77938;SDS011;67136;47.546;21.630;2023-07-20T13:45:00;5.75;;;1.30;;
77938;SDS011;67136;47.546;21.630;2023-07-20T13:48:03;8.17;;;1.40;;
77938;SDS011;67136;47.546;21.630;2023-07-20T13:51:08;3.12;;;1.23;;
77938;SDS011;67136;47.546;21.630;2023-07-20T13:54:11;5.43;;;1.60;;
77938;SDS011;67136;47.546;21.630;2023-07-20T13:57:17;4.90;;;1.40;;
77938;SDS011;67136;47.546;21.630;2023-07-20T14:00:21;7.47;;;1.65;;
77938;SDS011;67136;47.546;21.630;2023-07-20T14:03:24;8.07;;;1.37;;
77938;SDS011;67136;47.546;21.630;2023-07-20T14:06:30;9.63;;;1.50;;
77938;SDS011;67136;47.546;21.630;2023-07-20T14:09:34;7.93;;;1.62;;
77938;SDS011;67136;47.546;21.630;2023-07-20T14:12:37;8.73;;;1.92;;
77938;SDS011;67136;47.546;21.630;2023-07-20T14:15:40;4.18;;;1.70;;
77938;SDS011;67136;47.546;21.630;2023-07-20T14:18:43;8.87;;;1.70;;
77938;SDS011;67136;47.546;21.630;2023-07-20T14:21:50;4.93;;;1.95;;
77938;SDS011;67136;47.546;21.630;2023-07-20T14:24:53;5.60;;;1.70;;
77938;SDS011;67136;47.546;21.630;2023-07-20T14:27:57;6.60;;;1.67;;
77938;SDS011;67136;47.546;21.630;2023-07-20T14:31:00;4.05;;;1.33;;
77938;SDS011;67136;47.546;21.630;2023-07-20T14:34:03;1.90;;;1.30;;
77938;SDS011;67136;47.546;21.630;2023-07-20T14:37:05;3.20;;;1.50;;
77938;SDS011;67136;47.546;21.630;2023-07-20T14:40:09;5.40;;;1.60;;
77938;SDS011;67136;47.546;21.630;2023-07-20T14:43:12;4.03;;;1.25;;
77938;SDS011;67136;47.546;21.630;2023-07-20T14:46:16;6.68;;;1.62;;
77938;SDS011;67136;47.546;21.630;2023-07-20T14:49:22;5.03;;;1.70;;
77938;SDS011;67136;47.546;21.630;2023-07-20T14:52:25;3.40;;;1.60;;
77938;SDS011;67136;47.546;21.630;2023-07-20T14:55:30;3.30;;;1.77;;
77938;SDS011;67136;47.546;21.630;2023-07-20T14:58:34;3.28;;;1.50;;
77938;SDS011;67136;47.546;21.630;2023-07-20T15:01:38;4.53;;;1.62;;
77938;SDS011;67136;47.546;21.630;2023-07-20T15:04:49;3.20;;;1.70;;
77938;SDS011;67136;47.546;21.630;2023-07-20T15:07:53;3.58;;;1.60;;
77938;SDS011;67136;47.546;21.630;2023-07-20T15:10:57;2.05;;;1.50;;
77938;SDS011;67136;47.546;21.630;2023-07-20T15:13:59;2.50;;;1.70;;
77938;SDS011;67136;47.546;21.630;2023-07-20T15:17:02;3.85;;;1.73;;
77938;SDS011;67136;47.546;21.630;2023-07-20T15:20:05;5.40;;;1.93;;
77938;SDS011;67136;47.546;21.630;2023-07-20T15:23:10;3.80;;;1.67;;
77938;SDS011;67136;47.546;21.630;2023-07-20T15:26:15;3.60;;;1.73;;
77938;SDS011;67136;47.546;21.630;2023-07-20T15:29:18;2.97;;;1.62;;
77938;SDS011;67136;47.546;21.630;2023-07-20T15:32:24;2.45;;;1.85;;
77938;SDS011;67136;47.546;21.630;2023-07-20T15:35:26;4.50;;;1.67;;
77938;SDS011;67136;47.546;21.630;2023-07-20T15:38:30;4.57;;;1.80;;
77938;SDS011;67136;47.546;21.630;2023-07-20T15:41:33;4.25;;;1.67;;
77938;SDS011;67136;47.546;21.630;2023-07-20T15:44:36;3.17;;;1.80;;
77938;SDS011;67136;47.546;21.630;2023-07-20T15:47:39;3.75;;;1.62;;
77938;SDS011;67136;47.546;21.630;2023-07-20T15:50:42;2.60;;;1.70;;
77938;SDS011;67136;47.546;21.630;2023-07-20T15:53:46;6.55;;;2.05;;
77938;SDS011;67136;47.546;21.630;2023-07-20T15:56:49;4.10;;;2.03;;
77938;SDS011;67136;47.546;21.630;2023-07-20T15:59:52;2.60;;;1.92;;
77938;SDS011;67136;47.546;21.630;2023-07-20T16:02:55;4.68;;;2.12;;
77938;SDS011;67136;47.546;21.630;2023-07-20T16:05:58;3.03;;;1.87;;
77938;SDS011;67136;47.546;21.630;2023-07-20T16:09:04;5.28;;;2.10;;
77938;SDS011;67136;47.546;21.630;2023-07-20T16:12:07;5.45;;;2.22;;
77938;SDS011;67136;47.546;21.630;2023-07-20T16:15:10;6.15;;;2.60;;
77938;SDS011;67136;47.546;21.630;2023-07-20T16:18:13;3.85;;;2.20;;
77938;SDS011;67136;47.546;21.630;2023-07-20T16:21:17;4.70;;;2.07;;
77938;SDS011;67136;47.546;21.630;2023-07-20T16:24:23;3.70;;;2.20;;
77938;SDS011;67136;47.546;21.630;2023-07-20T16:27:26;5.12;;;2.45;;
77938;SDS011;67136;47.546;21.630;2023-07-20T16:30:29;4.65;;;2.10;;
77938;SDS011;67136;47.546;21.630;2023-07-20T16:33:31;4.68;;;2.17;;
77938;SDS011;67136;47.546;21.630;2023-07-20T16:36:35;7.03;;;2.30;;
77938;SDS011;67136;47.546;21.630;2023-07-20T16:39:41;3.95;;;2.10;;
77938;SDS011;67136;47.546;21.630;2023-07-20T16:42:49;3.85;;;2.05;;
77938;SDS011;67136;47.546;21.630;2023-07-20T16:46:01;5.45;;;2.37;;
77938;SDS011;67136;47.546;21.630;2023-07-20T16:49:10;5.68;;;2.10;;
77938;SDS011;67136;47.546;21.630;2023-07-20T16:52:15;4.87;;;2.27;;
77938;SDS011;67136;47.546;21.630;2023-07-20T16:55:18;4.40;;;2.28;;
77938;SDS011;67136;47.546;21.630;2023-07-20T16:58:24;3.03;;;2.20;;
77938;SDS011;67136;47.546;21.630;2023-07-20T17:01:29;4.35;;;2.37;;
77938;SDS011;67136;47.546;21.630;2023-07-20T17:04:31;4.62;;;2.45;;
77938;SDS011;67136;47.546;21.630;2023-07-20T17:07:34;5.13;;;2.70;;
77938;SDS011;67136;47.546;21.630;2023-07-20T17:10:37;3.08;;;2.28;;
77938;SDS011;67136;47.546;21.630;2023-07-20T17:13:41;3.78;;;2.45;;
77938;SDS011;67136;47.546;21.630;2023-07-20T17:16:44;3.60;;;2.45;;
77938;SDS011;67136;47.546;21.630;2023-07-20T17:19:47;5.07;;;2.90;;
77938;SDS011;67136;47.546;21.630;2023-07-20T17:23:10;4.47;;;2.60;;
77938;SDS011;67136;47.546;21.630;2023-07-20T17:26:12;5.03;;;2.50;;
77938;SDS011;67136;47.546;21.630;2023-07-20T17:29:18;6.57;;;2.92;;
77938;SDS011;67136;47.546;21.630;2023-07-20T17:32:22;7.62;;;2.85;;
77938;SDS011;67136;47.546;21.630;2023-07-20T17:35:25;7.60;;;2.72;;
77938;SDS011;67136;47.546;21.630;2023-07-20T17:38:30;4.17;;;2.60;;
77938;SDS011;67136;47.546;21.630;2023-07-20T17:41:35;5.93;;;3.08;;
77938;SDS011;67136;47.546;21.630;2023-07-20T17:44:40;4.60;;;3.10;;
77938;SDS011;67136;47.546;21.630;2023-07-20T17:47:43;4.00;;;2.97;;
77938;SDS011;67136;47.546;21.630;2023-07-20T17:50:46;3.95;;;2.80;;
77938;SDS011;67136;47.546;21.630;2023-07-20T17:53:48;6.10;;;3.00;;
77938;SDS011;67136;47.546;21.630;2023-07-20T17:56:51;7.47;;;3.20;;
77938;SDS011;67136;47.546;21.630;2023-07-20T17:59:55;3.80;;;2.90;;
77938;SDS011;67136;47.546;21.630;2023-07-20T18:03:01;5.25;;;3.00;;
77938;SDS011;67136;47.546;21.630;2023-07-20T18:06:05;5.80;;;3.03;;
77938;SDS011;67136;47.546;21.630;2023-07-20T18:09:09;4.90;;;3.20;;
77938;SDS011;67136;47.546;21.630;2023-07-20T18:12:12;9.68;;;3.45;;
77938;SDS011;67136;47.546;21.630;2023-07-20T18:15:14;6.72;;;3.50;;
77938;SDS011;67136;47.546;21.630;2023-07-20T18:18:18;5.60;;;3.08;;
77938;SDS011;67136;47.546;21.630;2023-07-20T18:21:20;4.65;;;3.10;;
77938;SDS011;67136;47.546;21.630;2023-07-20T18:24:24;4.23;;;2.93;;
77938;SDS011;67136;47.546;21.630;2023-07-20T18:27:26;5.30;;;3.47;;
77938;SDS011;67136;47.546;21.630;2023-07-20T18:30:32;6.50;;;3.53;;